createdAt,value
2022-11-29T00:01:37.560Z,28.07
2022-11-29T00:04:05.198Z,25.53
2022-11-29T00:06:34.135Z,31.23
2022-11-29T00:09:06.618Z,27.27
2022-11-29T00:11:55.144Z,29.73
2022-11-29T00:14:23.351Z,30.87
2022-11-29T00:16:59.324Z,29.70
2022-11-29T00:19:26.542Z,29.13
2022-11-29T00:21:53.656Z,34.63
2022-11-29T00:24:21.006Z,33.30
2022-11-29T00:26:48.206Z,33.60
2022-11-29T00:29:15.342Z,28.10
2022-11-29T00:31:43.235Z,29.93
2022-11-29T00:34:11.940Z,32.93
2022-11-29T00:36:39.927Z,33.40
2022-11-29T00:39:07.559Z,34.50
2022-11-29T00:41:34.635Z,32.90
2022-11-29T00:44:01.652Z,35.23
2022-11-29T00:46:28.698Z,40.13
2022-11-29T00:48:55.834Z,33.50
2022-11-29T00:51:22.849Z,33.63
2022-11-29T00:53:49.902Z,30.57
2022-11-29T00:56:17.310Z,34.93
2022-11-29T00:58:44.450Z,34.13
2022-11-29T01:01:12.014Z,35.23
2022-11-29T01:03:39.377Z,37.00
2022-11-29T01:06:15.890Z,40.53
2022-11-29T01:08:43.407Z,36.33
2022-11-29T01:11:21.411Z,29.30
2022-11-29T01:13:51.494Z,33.53
2022-11-29T01:16:18.911Z,32.40
2022-11-29T01:18:46.102Z,33.63
2022-11-29T01:21:17.434Z,33.73
2022-11-29T01:23:46.540Z,33.43
2022-11-29T01:26:33.848Z,38.83
2022-11-29T01:29:00.943Z,37.30
2022-11-29T01:31:36.309Z,34.57
2022-11-29T01:34:06.327Z,35.43
2022-11-29T01:36:34.588Z,38.43
2022-11-29T01:39:04.624Z,38.93
2022-11-29T01:41:34.809Z,40.27
2022-11-29T01:44:26.820Z,36.03
2022-11-29T01:46:54.901Z,38.27
2022-11-29T01:49:27.256Z,38.73
2022-11-29T01:52:12.798Z,40.97
2022-11-29T01:54:45.843Z,37.20
2022-11-29T01:57:13.813Z,36.67
2022-11-29T01:59:50.248Z,41.97
2022-11-29T02:02:40.239Z,40.60
2022-11-29T02:05:08.575Z,43.07
2022-11-29T02:07:36.310Z,40.60
2022-11-29T02:10:05.646Z,42.27
2022-11-29T02:12:43.467Z,37.70
2022-11-29T02:15:22.393Z,40.30
2022-11-29T02:18:24.509Z,38.73
2022-11-29T02:21:26.603Z,40.47
2022-11-29T02:24:35.449Z,38.70
2022-11-29T02:27:21.025Z,38.27
2022-11-29T02:30:27.662Z,44.23
2022-11-29T02:33:22.688Z,40.77
2022-11-29T02:36:32.847Z,43.10
2022-11-29T02:39:14.718Z,42.07
2022-11-29T02:41:56.676Z,36.47
2022-11-29T02:44:59.298Z,38.17
2022-11-29T02:47:57.188Z,44.10
2022-11-29T02:51:14.192Z,43.77
2022-11-29T02:54:08.528Z,47.77
2022-11-29T02:56:51.349Z,43.10
2022-11-29T02:59:53.164Z,43.23
2022-11-29T03:02:49.687Z,41.13
2022-11-29T03:05:41.984Z,42.73
2022-11-29T03:08:32.467Z,42.80
2022-11-29T03:11:06.961Z,46.20
2022-11-29T03:14:11.272Z,46.33
2022-11-29T03:16:45.593Z,39.70
2022-11-29T03:19:18.562Z,51.43
2022-11-29T03:22:09.497Z,49.40
2022-11-29T03:24:55.119Z,46.10
2022-11-29T03:27:56.867Z,45.33
2022-11-29T03:30:24.302Z,51.77
2022-11-29T03:33:34.199Z,44.90
2022-11-29T03:36:43.836Z,47.47
2022-11-29T03:39:33.904Z,46.87
2022-11-29T03:42:09.190Z,45.03
2022-11-29T03:45:06.746Z,47.70
2022-11-29T03:47:49.485Z,46.40
2022-11-29T03:50:32.733Z,56.80
2022-11-29T03:53:11.927Z,48.13
2022-11-29T03:55:57.445Z,52.63
2022-11-29T03:58:39.536Z,50.67
2022-11-29T04:01:22.526Z,56.50
2022-11-29T04:04:18.251Z,49.20
2022-11-29T04:07:17.549Z,44.93
2022-11-29T04:10:27.182Z,49.80
2022-11-29T04:13:48.958Z,46.93
2022-11-29T04:16:28.207Z,45.53
2022-11-29T04:19:32.257Z,51.07
2022-11-29T04:22:33.365Z,42.97
2022-11-29T04:25:40.828Z,46.17
2022-11-29T04:28:52.528Z,45.23
2022-11-29T04:31:38.999Z,44.77
2022-11-29T04:34:17.968Z,47.80
2022-11-29T04:37:07.053Z,53.40
2022-11-29T04:40:08.557Z,49.10
2022-11-29T04:43:09.410Z,50.77
2022-11-29T04:46:10.433Z,46.40
2022-11-29T04:48:54.244Z,45.23
2022-11-29T04:51:57.521Z,43.00
2022-11-29T04:55:07.031Z,45.43
2022-11-29T04:57:51.652Z,42.37
2022-11-29T05:00:23.445Z,41.30
2022-11-29T05:02:57.476Z,55.03
2022-11-29T05:05:47.778Z,43.97
2022-11-29T05:08:26.300Z,43.87
2022-11-29T05:11:26.545Z,38.87
2022-11-29T05:14:18.890Z,39.40
2022-11-29T05:17:05.833Z,44.00
2022-11-29T05:20:18.363Z,38.00
2022-11-29T05:23:22.253Z,42.27
2022-11-29T05:26:01.633Z,44.00
2022-11-29T05:29:06.063Z,39.13
2022-11-29T05:31:51.618Z,41.10
2022-11-29T05:34:54.668Z,41.23
2022-11-29T05:37:49.513Z,40.30
2022-11-29T05:40:44.330Z,37.93
2022-11-29T05:43:47.377Z,42.33
2022-11-29T05:46:28.279Z,40.30
2022-11-29T05:49:19.873Z,43.83
2022-11-29T05:52:26.642Z,44.73
2022-11-29T05:55:15.316Z,38.87
2022-11-29T05:58:12.409Z,36.57
2022-11-29T06:01:01.981Z,38.97
2022-11-29T06:03:54.993Z,38.97
2022-11-29T06:06:48.875Z,34.93
2022-11-29T06:09:40.939Z,34.43
2022-11-29T06:12:22.027Z,35.83
2022-11-29T06:15:23.482Z,40.53
2022-11-29T06:17:57.822Z,35.30
2022-11-29T06:21:02.814Z,35.80
2022-11-29T06:23:35.096Z,34.50
2022-11-29T06:26:44.960Z,33.43
2022-11-29T06:29:42.418Z,33.90
2022-11-29T06:33:08.316Z,36.40
2022-11-29T06:35:48.824Z,36.60
2022-11-29T06:38:26.375Z,32.67
2022-11-29T06:40:58.694Z,34.50
2022-11-29T06:43:29.274Z,40.07
2022-11-29T06:46:04.980Z,33.23
2022-11-29T06:48:45.125Z,36.20
2022-11-29T06:51:44.490Z,34.20
2022-11-29T06:54:25.740Z,37.77
2022-11-29T06:57:14.723Z,39.00
2022-11-29T07:00:03.893Z,36.03
2022-11-29T07:03:05.046Z,39.87
2022-11-29T07:05:34.895Z,33.60
2022-11-29T07:08:17.297Z,38.40
2022-11-29T07:10:45.581Z,39.20
2022-11-29T07:13:13.799Z,35.93
2022-11-29T07:16:07.000Z,39.50
2022-11-29T07:19:04.660Z,38.67
2022-11-29T07:21:54.470Z,37.73
2022-11-29T07:24:39.603Z,43.67
2022-11-29T07:27:18.353Z,39.13
2022-11-29T07:30:13.727Z,36.33
2022-11-29T07:33:04.277Z,42.10
2022-11-29T07:35:55.289Z,35.17
2022-11-29T07:39:12.631Z,38.40
2022-11-29T07:42:07.529Z,34.60
2022-11-29T07:44:40.340Z,32.33
2022-11-29T07:47:09.267Z,31.00
2022-11-29T07:49:36.335Z,32.30
2022-11-29T07:52:03.743Z,30.57
2022-11-29T07:54:31.353Z,33.27
2022-11-29T07:56:58.369Z,30.20
2022-11-29T07:59:25.416Z,32.60
2022-11-29T08:01:52.840Z,32.50
2022-11-29T08:04:19.915Z,34.00
2022-11-29T08:06:49.608Z,33.83
2022-11-29T08:09:16.868Z,31.83
2022-11-29T08:11:44.768Z,31.13
2022-11-29T08:14:11.829Z,33.63
2022-11-29T08:16:38.901Z,33.10
2022-11-29T08:19:06.452Z,31.33
2022-11-29T08:21:33.512Z,28.03
2022-11-29T08:24:00.588Z,24.50
2022-11-29T08:26:31.800Z,27.80
2022-11-29T08:28:59.191Z,29.03
2022-11-29T08:31:26.281Z,26.97
2022-11-29T08:33:53.607Z,29.50
2022-11-29T08:36:21.668Z,29.33
2022-11-29T08:38:49.283Z,29.67
2022-11-29T08:41:17.762Z,29.73
2022-11-29T08:43:45.038Z,29.33
2022-11-29T08:46:16.909Z,24.97
2022-11-29T08:48:47.207Z,25.23
2022-11-29T08:51:14.551Z,25.50
2022-11-29T08:53:41.673Z,25.00
2022-11-29T08:56:59.625Z,23.37
2022-11-29T08:59:00.936Z,31.30
2022-11-29T09:01:29.363Z,25.30
2022-11-29T09:03:59.682Z,25.20
2022-11-29T09:06:32.317Z,24.83
2022-11-29T09:09:00.764Z,25.70
2022-11-29T09:11:30.043Z,25.70
2022-11-29T09:14:01.561Z,24.73
2022-11-29T09:16:32.814Z,27.47
2022-11-29T09:19:00.181Z,21.97
2022-11-29T09:21:30.038Z,27.83
2022-11-29T09:24:01.784Z,25.23
2022-11-29T09:26:34.244Z,22.23
2022-11-29T09:29:06.663Z,25.90
2022-11-29T09:31:35.236Z,22.20
2022-11-29T09:34:02.864Z,20.63
2022-11-29T09:36:31.265Z,22.73
2022-11-29T09:39:02.667Z,23.10
2022-11-29T09:41:58.630Z,20.63
2022-11-29T09:45:05.666Z,19.60
2022-11-29T09:47:58.227Z,20.27
2022-11-29T09:50:35.096Z,23.80
2022-11-29T09:53:36.313Z,20.37
2022-11-29T09:56:29.273Z,21.53
2022-11-29T09:59:26.046Z,20.67
2022-11-29T10:02:00.090Z,17.90
2022-11-29T10:04:32.716Z,18.53
2022-11-29T10:07:09.087Z,19.10
2022-11-29T10:09:51.635Z,24.13
2022-11-29T10:12:44.372Z,19.67
2022-11-29T10:15:26.005Z,18.33
2022-11-29T10:18:44.132Z,17.30
2022-11-29T10:21:18.376Z,18.03
2022-11-29T10:23:55.997Z,16.90
2022-11-29T10:26:25.926Z,17.60
2022-11-29T10:28:57.693Z,24.77
2022-11-29T10:31:33.428Z,19.77
2022-11-29T10:34:10.739Z,18.13
2022-11-29T10:36:54.724Z,19.47
2022-11-29T10:39:47.856Z,17.43
2022-11-29T10:42:42.993Z,19.47
2022-11-29T10:45:35.473Z,21.33
2022-11-29T10:48:07.862Z,20.57
2022-11-29T10:50:37.392Z,20.97
2022-11-29T10:53:11.496Z,19.53
2022-11-29T10:55:57.611Z,22.20
2022-11-29T10:58:30.175Z,21.97
2022-11-29T11:01:07.050Z,18.57
2022-11-29T11:03:41.888Z,20.47
2022-11-29T11:06:19.786Z,24.97
2022-11-29T11:08:50.629Z,24.50
2022-11-29T11:11:50.964Z,19.63
2022-11-29T11:14:41.820Z,30.33
2022-11-29T11:17:32.920Z,25.40
2022-11-29T11:20:09.010Z,23.10
2022-11-29T11:22:39.931Z,22.63
2022-11-29T11:25:34.734Z,26.07
2022-11-29T11:28:31.910Z,23.83
2022-11-29T11:31:04.554Z,27.53
2022-11-29T11:33:38.203Z,21.70
2022-11-29T11:36:20.435Z,24.40
2022-11-29T11:38:52.466Z,24.13
2022-11-29T11:41:52.312Z,22.20
2022-11-29T11:47:29.470Z,25.90
2022-11-29T11:50:28.229Z,23.57
2022-11-29T11:53:05.157Z,25.03
2022-11-29T11:55:43.523Z,26.33
2022-11-29T11:58:13.642Z,21.80
2022-11-29T12:01:04.781Z,24.33
2022-11-29T12:03:48.321Z,23.10
2022-11-29T12:06:52.256Z,26.47
2022-11-29T12:09:40.518Z,22.60
2022-11-29T12:12:27.392Z,21.33
2022-11-29T12:15:16.423Z,24.37
2022-11-29T12:18:12.306Z,21.53
2022-11-29T12:21:01.661Z,21.23
2022-11-29T12:23:44.493Z,22.67
2022-11-29T12:26:55.273Z,22.27
2022-11-29T12:29:17.456Z,23.70
2022-11-29T12:32:00.338Z,29.90
2022-11-29T12:34:51.933Z,24.93
2022-11-29T12:38:04.526Z,26.90
2022-11-29T12:40:57.724Z,27.30
2022-11-29T12:43:36.534Z,29.63
2022-11-29T12:46:25.090Z,22.03
2022-11-29T12:48:55.036Z,28.00
2022-11-29T12:51:58.038Z,33.57
2022-11-29T12:54:52.791Z,34.40
2022-11-29T12:57:53.580Z,33.73
2022-11-29T13:00:21.426Z,34.97
2022-11-29T13:03:19.453Z,32.70
2022-11-29T13:06:07.723Z,31.90
2022-11-29T13:09:11.375Z,35.10
2022-11-29T13:11:45.405Z,49.93
2022-11-29T13:14:55.263Z,27.80
2022-11-29T13:17:52.034Z,25.60
2022-11-29T13:20:44.172Z,26.60
2022-11-29T13:23:45.925Z,30.73
2022-11-29T13:26:28.373Z,28.10
2022-11-29T13:28:57.285Z,26.07
2022-11-29T13:31:25.600Z,27.73
2022-11-29T13:34:15.116Z,30.83
2022-11-29T13:37:05.487Z,28.93
2022-11-29T13:40:11.356Z,29.60
2022-11-29T13:42:55.243Z,28.40
2022-11-29T13:45:37.799Z,32.67
2022-11-29T13:48:37.061Z,32.50
2022-11-29T13:51:41.156Z,32.77
2022-11-29T13:54:30.700Z,34.20
2022-11-29T13:57:16.577Z,32.20
2022-11-29T13:59:50.886Z,38.47
2022-11-29T14:02:30.783Z,31.40
2022-11-29T14:04:58.478Z,33.97
2022-11-29T14:07:25.770Z,39.37
2022-11-29T14:10:02.243Z,38.73
2022-11-29T14:12:50.829Z,37.30
2022-11-29T14:15:31.186Z,39.27
2022-11-29T14:18:09.492Z,36.73
2022-11-29T14:20:39.583Z,41.37
2022-11-29T14:23:13.141Z,40.50
2022-11-29T14:26:07.697Z,39.43
2022-11-29T14:28:40.078Z,40.93
2022-11-29T14:31:09.379Z,40.20
2022-11-29T14:33:51.582Z,40.57
2022-11-29T14:36:26.013Z,35.27
2022-11-29T14:39:05.015Z,37.23
2022-11-29T14:42:01.879Z,38.83
2022-11-29T14:44:31.673Z,36.97
2022-11-29T14:47:31.885Z,41.13
2022-11-29T14:50:03.762Z,36.57
2022-11-29T14:52:37.976Z,32.70
2022-11-29T14:55:30.005Z,35.13
2022-11-29T14:58:04.093Z,36.73
2022-11-29T15:00:47.644Z,44.03
2022-11-29T15:03:32.583Z,40.47
2022-11-29T15:06:18.106Z,37.17
2022-11-29T15:09:14.503Z,33.50
2022-11-29T15:11:53.903Z,33.17
2022-11-29T15:14:44.736Z,32.50
2022-11-29T15:17:55.060Z,36.97
2022-11-29T15:20:42.196Z,28.23
2022-11-29T15:23:18.589Z,30.77
2022-11-29T15:25:52.405Z,29.60
2022-11-29T15:28:28.584Z,31.30
2022-11-29T15:31:12.114Z,37.33
2022-11-29T15:33:45.208Z,35.93
2022-11-29T15:36:21.892Z,29.03
2022-11-29T15:38:53.020Z,35.70
2022-11-29T15:41:34.367Z,29.43
2022-11-29T15:44:07.389Z,34.87
2022-11-29T15:46:35.840Z,34.40
2022-11-29T15:49:27.435Z,36.90
2022-11-29T15:52:03.468Z,33.30
2022-11-29T15:54:42.819Z,38.63
2022-11-29T15:57:24.730Z,41.60
2022-11-29T16:00:02.902Z,32.20
2022-11-29T16:02:37.072Z,39.03
2022-11-29T16:05:31.272Z,40.70
2022-11-29T16:08:04.416Z,36.80
2022-11-29T16:10:43.628Z,39.67
2022-11-29T16:13:25.871Z,41.30
2022-11-29T16:16:07.558Z,44.60
2022-11-29T16:18:35.513Z,44.87
2022-11-29T16:21:06.881Z,50.20
2022-11-29T16:23:42.235Z,47.03
2022-11-29T16:26:22.419Z,40.73
2022-11-29T16:28:53.009Z,38.97
2022-11-29T16:31:37.978Z,48.43
2022-11-29T16:34:21.767Z,49.23
2022-11-29T16:37:21.859Z,47.80
2022-11-29T16:39:54.710Z,50.73
2022-11-29T16:42:28.363Z,46.63
2022-11-29T16:45:33.732Z,44.10
2022-11-29T16:48:02.849Z,43.20
2022-11-29T16:50:32.290Z,44.93
2022-11-29T16:53:35.773Z,45.70
2022-11-29T16:56:04.659Z,42.70
2022-11-29T16:58:35.487Z,46.40
2022-11-29T17:01:28.264Z,50.67
2022-11-29T17:03:58.027Z,48.13
2022-11-29T17:06:26.258Z,45.63
2022-11-29T17:08:57.063Z,45.03
2022-11-29T17:11:24.608Z,42.70
2022-11-29T17:13:53.199Z,49.27
2022-11-29T17:16:23.098Z,41.33
2022-11-29T17:18:52.724Z,52.73
2022-11-29T17:21:26.392Z,47.50
2022-11-29T17:23:54.411Z,49.20
2022-11-29T17:26:22.778Z,45.13
2022-11-29T17:28:52.134Z,64.00
2022-11-29T17:31:22.769Z,45.70
2022-11-29T17:33:51.114Z,47.63
2022-11-29T17:36:20.422Z,45.53
2022-11-29T17:38:48.080Z,43.20
2022-11-29T17:41:22.812Z,44.13
2022-11-29T17:43:51.875Z,46.93
2022-11-29T17:46:21.938Z,52.57
2022-11-29T17:48:50.059Z,49.90
2022-11-29T17:51:49.931Z,51.13
2022-11-29T17:54:09.715Z,51.70
2022-11-29T17:56:36.767Z,51.40
2022-11-29T17:59:05.004Z,50.00
2022-11-29T18:01:34.830Z,50.03
2022-11-29T18:04:05.538Z,47.80
2022-11-29T18:06:39.598Z,51.53
2022-11-29T18:09:09.354Z,50.07
2022-11-29T18:11:48.001Z,50.13
2022-11-29T18:14:28.451Z,47.37
2022-11-29T18:16:55.755Z,56.13
2022-11-29T18:19:23.770Z,47.73
2022-11-29T18:21:51.869Z,51.30
2022-11-29T18:24:19.647Z,48.03
2022-11-29T18:26:47.014Z,47.93
2022-11-29T18:29:14.736Z,48.73
2022-11-29T18:31:44.967Z,48.60
2022-11-29T18:34:14.178Z,51.40
2022-11-29T18:36:46.407Z,46.20
2022-11-29T18:39:19.356Z,47.53
2022-11-29T18:41:50.847Z,53.80
2022-11-29T18:44:21.760Z,51.43
2022-11-29T18:46:49.077Z,49.73
2022-11-29T18:49:17.995Z,50.47
2022-11-29T18:51:46.545Z,62.40
2022-11-29T18:54:15.974Z,53.03
2022-11-29T18:56:44.936Z,52.20
2022-11-29T18:59:16.936Z,51.77
2022-11-29T19:01:46.512Z,51.87
2022-11-29T19:04:20.012Z,43.93
2022-11-29T19:06:47.847Z,49.50
2022-11-29T19:09:21.825Z,43.10
2022-11-29T19:11:49.874Z,49.97
2022-11-29T19:14:17.479Z,48.97
2022-11-29T19:16:47.582Z,47.70
2022-11-29T19:19:14.823Z,53.07
2022-11-29T19:21:42.561Z,43.83
2022-11-29T19:24:15.151Z,54.07
2022-11-29T19:26:45.536Z,46.83
2022-11-29T19:29:16.458Z,53.40
2022-11-29T19:31:43.685Z,44.03
2022-11-29T19:34:11.426Z,44.77
2022-11-29T19:36:43.678Z,53.07
2022-11-29T19:39:16.620Z,53.73
2022-11-29T19:41:47.200Z,56.07
2022-11-29T19:44:14.686Z,52.07
2022-11-29T19:46:48.723Z,54.83
2022-11-29T19:49:19.422Z,49.47
2022-11-29T19:51:46.826Z,51.87
2022-11-29T19:54:13.999Z,49.13
2022-11-29T19:56:41.984Z,51.73
2022-11-29T19:59:09.404Z,54.90
2022-11-29T20:01:42.042Z,52.60
2022-11-29T20:04:12.111Z,50.43
2022-11-29T20:06:40.589Z,45.17
2022-11-29T20:09:07.942Z,55.97
2022-11-29T20:11:35.678Z,56.57
2022-11-29T20:14:05.560Z,51.30
2022-11-29T20:16:34.539Z,53.00
2022-11-29T20:19:01.873Z,56.73
2022-11-29T20:21:32.602Z,56.20
2022-11-29T20:24:04.264Z,55.20
2022-11-29T20:26:33.920Z,55.87
2022-11-29T20:29:02.318Z,53.43
2022-11-29T20:31:31.393Z,58.47
2022-11-29T20:33:58.884Z,57.33
2022-11-29T20:36:47.032Z,51.00
2022-11-29T20:39:48.146Z,57.13
2022-11-29T20:42:53.529Z,50.70
2022-11-29T20:45:21.122Z,60.80
2022-11-29T20:48:14.209Z,54.50
2022-11-29T20:50:47.083Z,51.57
2022-11-29T20:53:36.684Z,56.77
2022-11-29T20:56:05.637Z,55.00
2022-11-29T20:58:33.295Z,58.43
2022-11-29T21:01:01.450Z,58.83
2022-11-29T21:03:30.207Z,55.33
2022-11-29T21:06:00.662Z,47.80
2022-11-29T21:08:27.899Z,53.13
2022-11-29T21:11:07.930Z,61.30
2022-11-29T21:13:35.500Z,57.97
2022-11-29T21:16:03.681Z,57.10
2022-11-29T21:18:31.923Z,53.13
2022-11-29T21:21:19.587Z,54.80
2022-11-29T21:24:38.994Z,51.67
2022-11-29T21:27:11.100Z,55.07
2022-11-29T21:29:38.655Z,55.40
2022-11-29T21:32:06.352Z,56.10
2022-11-29T21:34:34.112Z,54.27
2022-11-29T21:37:01.221Z,63.40
2022-11-29T21:39:35.173Z,59.40
2022-11-29T21:42:02.847Z,53.00
2022-11-29T21:44:29.958Z,53.90
2022-11-29T21:46:57.041Z,61.13
2022-11-29T21:49:24.276Z,59.53
2022-11-29T21:51:51.305Z,50.73
2022-11-29T21:54:18.345Z,52.30
2022-11-29T21:56:45.320Z,51.93
2022-11-29T21:59:12.315Z,54.63
2022-11-29T22:01:39.533Z,50.73
2022-11-29T22:04:06.712Z,53.67
2022-11-29T22:06:33.913Z,50.60
2022-11-29T22:09:01.123Z,50.43
2022-11-29T22:11:31.246Z,48.07
2022-11-29T22:14:19.236Z,56.77
2022-11-29T22:16:58.313Z,45.27
2022-11-29T22:19:31.977Z,43.23
2022-11-29T22:22:05.433Z,43.70
2022-11-29T22:24:35.840Z,43.67
2022-11-29T22:27:03.154Z,47.53
2022-11-29T22:29:30.301Z,45.00
2022-11-29T22:31:59.266Z,48.50
2022-11-29T22:34:27.554Z,44.77
2022-11-29T22:36:56.011Z,43.80
2022-11-29T22:39:24.000Z,44.40
2022-11-29T22:41:54.765Z,49.40
2022-11-29T22:44:23.890Z,51.13
2022-11-29T22:46:51.225Z,47.23
2022-11-29T22:49:18.459Z,46.77
2022-11-29T22:51:45.590Z,47.60
2022-11-29T22:54:15.520Z,48.37
2022-11-29T22:56:44.592Z,46.90
2022-11-29T22:59:11.778Z,47.43
2022-11-29T23:01:41.136Z,42.87
2022-11-29T23:04:10.768Z,45.43
2022-11-29T23:06:42.279Z,43.60
2022-11-29T23:09:17.013Z,47.13
2022-11-29T23:11:45.930Z,45.50
2022-11-29T23:14:13.367Z,47.87
2022-11-29T23:16:40.763Z,49.30
2022-11-29T23:19:07.975Z,48.77
2022-11-29T23:21:39.839Z,46.53
2022-11-29T23:24:07.910Z,48.53
2022-11-29T23:26:39.560Z,39.87
2022-11-29T23:29:10.432Z,45.63
2022-11-29T23:31:37.772Z,49.37
2022-11-29T23:34:05.405Z,47.50
2022-11-29T23:36:32.900Z,42.90
2022-11-29T23:39:00.521Z,51.70
2022-11-29T23:41:27.655Z,43.47
2022-11-29T23:43:57.466Z,44.87
2022-11-29T23:46:25.565Z,45.83
2022-11-29T23:48:52.959Z,43.17
2022-11-29T23:51:20.927Z,48.07
2022-11-29T23:53:53.116Z,46.20
2022-11-29T23:56:21.542Z,45.10
2022-11-29T23:58:49.227Z,45.60
